sensor_id;sensor_type;location;lat;lon;timestamp;pressure;altitude;pressure_sealevel;temperature;humidity
3142;BME280;1581;51.568;6.998;2024-01-15T00:01:50;99520.78;;;3.26;100.00
3142;BME280;1581;51.568;6.998;2024-01-15T00:04:18;99523.19;;;3.36;100.00
3142;BME280;1581;51.568;6.998;2024-01-15T00:06:45;99521.06;;;3.31;100.00
3142;BME280;1581;51.568;6.998;2024-01-15T00:09:13;99523.88;;;3.30;100.00
3142;BME280;1581;51.568;6.998;2024-01-15T00:11:40;99512.69;;;3.28;100.00
3142;BME280;1581;51.568;6.998;2024-01-15T00:14:08;99508.41;;;3.27;100.00
3142;BME280;1581;51.568;6.998;2024-01-15T00:16:37;99508.50;;;3.41;100.00
3142;BME280;1581;51.568;6.998;2024-01-15T00:19:04;99511.84;;;3.35;100.00
3142;BME280;1581;51.568;6.998;2024-01-15T00:21:32;99500.97;;;3.38;100.00
3142;BME280;1581;51.568;6.998;2024-01-15T00:23:59;99492.75;;;3.33;100.00
3142;BME280;1581;51.568;6.998;2024-01-15T00:26:27;99496.06;;;3.57;100.00
3142;BME280;1581;51.568;6.998;2024-01-15T00:28:54;99487.34;;;3.57;100.00
3142;BME280;1581;51.568;6.998;2024-01-15T00:31:22;99491.91;;;3.40;100.00
3142;BME280;1581;51.568;6.998;2024-01-15T00:33:50;99489.28;;;3.40;100.00
3142;BME280;1581;51.568;6.998;2024-01-15T00:36:18;99493.53;;;3.41;100.00
3142;BME280;1581;51.568;6.998;2024-01-15T00:38:45;99490.34;;;3.54;100.00
3142;BME280;1581;51.568;6.998;2024-01-15T00:41:13;99493.50;;;3.49;100.00
3142;BME280;1581;51.568;6.998;2024-01-15T00:43:41;99493.06;;;3.38;100.00
3142;BME280;1581;51.568;6.998;2024-01-15T00:46:08;99487.44;;;3.41;100.00
3142;BME280;1581;51.568;6.998;2024-01-15T00:48:35;99483.28;;;3.46;100.00
3142;BME280;1581;51.568;6.998;2024-01-15T00:51:05;99479.34;;;3.50;100.00
3142;BME280;1581;51.568;6.998;2024-01-15T00:53:32;99480.97;;;3.51;100.00
3142;BME280;1581;51.568;6.998;2024-01-15T00:56:00;99493.50;;;3.49;100.00
3142;BME280;1581;51.568;6.998;2024-01-15T00:58:27;99482.94;;;3.49;100.00
3142;BME280;1581;51.568;6.998;2024-01-15T01:00:55;99480.72;;;3.38;100.00
3142;BME280;1581;51.568;6.998;2024-01-15T01:03:22;99489.59;;;3.38;100.00
3142;BME280;1581;51.568;6.998;2024-01-15T01:05:50;99481.31;;;3.48;100.00
3142;BME280;1581;51.568;6.998;2024-01-15T01:08:19;99471.50;;;3.42;100.00
3142;BME280;1581;51.568;6.998;2024-01-15T01:10:46;99480.19;;;3.43;100.00
3142;BME280;1581;51.568;6.998;2024-01-15T01:13:13;99479.53;;;3.49;100.00
3142;BME280;1581;51.568;6.998;2024-01-15T01:15:41;99468.47;;;3.45;100.00
3142;BME280;1581;51.568;6.998;2024-01-15T01:18:08;99464.41;;;3.43;100.00
3142;BME280;1581;51.568;6.998;2024-01-15T01:20:35;99469.66;;;3.43;100.00
3142;BME280;1581;51.568;6.998;2024-01-15T01:23:02;99463.88;;;3.47;100.00
3142;BME280;1581;51.568;6.998;2024-01-15T01:25:31;99460.84;;;3.58;100.00
3142;BME280;1581;51.568;6.998;2024-01-15T01:27:58;99460.03;;;3.58;100.00
3142;BME280;1581;51.568;6.998;2024-01-15T01:30:26;99470.44;;;3.51;100.00
3142;BME280;1581;51.568;6.998;2024-01-15T01:32:53;99456.03;;;3.39;100.00
3142;BME280;1581;51.568;6.998;2024-01-15T01:35:20;99461.75;;;3.43;100.00
3142;BME280;1581;51.568;6.998;2024-01-15T01:37:48;99458.59;;;3.47;100.00
3142;BME280;1581;51.568;6.998;2024-01-15T01:40:15;99462.53;;;3.51;100.00
3142;BME280;1581;51.568;6.998;2024-01-15T01:42:44;99460.06;;;3.50;100.00
3142;BME280;1581;51.568;6.998;2024-01-15T01:45:12;99465.56;;;3.40;100.00
3142;BME280;1581;51.568;6.998;2024-01-15T01:47:40;99468.06;;;3.34;100.00
3142;BME280;1581;51.568;6.998;2024-01-15T01:50:08;99464.22;;;3.44;100.00
3142;BME280;1581;51.568;6.998;2024-01-15T01:52:36;99466.75;;;3.38;100.00
3142;BME280;1581;51.568;6.998;2024-01-15T01:55:04;99457.22;;;3.37;100.00
3142;BME280;1581;51.568;6.998;2024-01-15T01:57:34;99473.53;;;3.25;100.00
3142;BME280;1581;51.568;6.998;2024-01-15T02:00:05;99465.31;;;3.28;100.00
3142;BME280;1581;51.568;6.998;2024-01-15T02:02:35;99471.88;;;3.32;100.00
3142;BME280;1581;51.568;6.998;2024-01-15T02:05:04;99472.09;;;3.44;100.00
3142;BME280;1581;51.568;6.998;2024-01-15T02:07:34;99468.72;;;3.36;100.00
3142;BME280;1581;51.568;6.998;2024-01-15T02:10:02;99463.63;;;3.35;100.00
3142;BME280;1581;51.568;6.998;2024-01-15T02:12:29;99461.56;;;3.44;100.00
3142;BME280;1581;51.568;6.998;2024-01-15T02:14:57;99470.66;;;3.42;100.00
3142;BME280;1581;51.568;6.998;2024-01-15T02:17:26;99470.06;;;3.32;100.00
3142;BME280;1581;51.568;6.998;2024-01-15T02:19:53;99466.66;;;3.24;100.00
3142;BME280;1581;51.568;6.998;2024-01-15T02:22:21;99476.16;;;3.33;100.00
3142;BME280;1581;51.568;6.998;2024-01-15T02:24:49;99474.00;;;3.36;100.00
3142;BME280;1581;51.568;6.998;2024-01-15T02:27:17;99463.53;;;3.28;100.00
3142;BME280;1581;51.568;6.998;2024-01-15T02:29:45;99474.34;;;3.33;100.00
3142;BME280;1581;51.568;6.998;2024-01-15T02:32:13;99470.56;;;3.28;100.00
3142;BME280;1581;51.568;6.998;2024-01-15T02:34:40;99466.56;;;3.39;100.00
3142;BME280;1581;51.568;6.998;2024-01-15T02:37:08;99475.13;;;3.41;100.00
3142;BME280;1581;51.568;6.998;2024-01-15T02:39:35;99473.81;;;3.38;100.00
3142;BME280;1581;51.568;6.998;2024-01-15T02:42:05;99470.00;;;3.40;100.00
3142;BME280;1581;51.568;6.998;2024-01-15T02:44:32;99474.38;;;3.25;100.00
3142;BME280;1581;51.568;6.998;2024-01-15T02:46:58;99461.41;;;3.24;100.00
3142;BME280;1581;51.568;6.998;2024-01-15T02:49:26;99466.47;;;3.25;100.00
3142;BME280;1581;51.568;6.998;2024-01-15T02:51:54;99457.53;;;3.34;100.00
3142;BME280;1581;51.568;6.998;2024-01-15T02:54:22;99464.63;;;3.34;100.00
3142;BME280;1581;51.568;6.998;2024-01-15T02:56:49;99463.53;;;3.28;100.00
3142;BME280;1581;51.568;6.998;2024-01-15T02:59:18;99458.94;;;3.44;100.00
3142;BME280;1581;51.568;6.998;2024-01-15T03:01:46;99460.88;;;3.28;100.00
3142;BME280;1581;51.568;6.998;2024-01-15T03:04:14;99459.19;;;3.35;100.00
3142;BME280;1581;51.568;6.998;2024-01-15T03:06:42;99462.22;;;3.24;100.00
3142;BME280;1581;51.568;6.998;2024-01-15T03:09:09;99462.41;;;3.23;100.00
3142;BME280;1581;51.568;6.998;2024-01-15T03:11:38;99454.50;;;3.23;100.00
3142;BME280;1581;51.568;6.998;2024-01-15T03:14:05;99463.16;;;3.31;100.00
3142;BME280;1581;51.568;6.998;2024-01-15T03:16:34;99456.03;;;3.39;100.00
3142;BME280;1581;51.568;6.998;2024-01-15T03:19:02;99453.47;;;3.32;100.00
3142;BME280;1581;51.568;6.998;2024-01-15T03:21:29;99464.97;;;3.31;100.00
3142;BME280;1581;51.568;6.998;2024-01-15T03:23:56;99458.19;;;3.36;100.00
3142;BME280;1581;51.568;6.998;2024-01-15T03:26:24;99465.56;;;3.40;100.00
3142;BME280;1581;51.568;6.998;2024-01-15T03:28:52;99465.00;;;3.53;100.00
3142;BME280;1581;51.568;6.998;2024-01-15T03:31:19;99468.16;;;3.48;100.00
3142;BME280;1581;51.568;6.998;2024-01-15T03:33:48;99465.75;;;3.39;100.00
3142;BME280;1581;51.568;6.998;2024-01-15T03:36:15;99474.28;;;3.41;100.00
3142;BME280;1581;51.568;6.998;2024-01-15T03:38:43;99467.88;;;3.43;100.00
3142;BME280;1581;51.568;6.998;2024-01-15T03:41:10;99462.41;;;3.45;100.00
3142;BME280;1581;51.568;6.998;2024-01-15T03:43:38;99457.63;;;3.48;100.00
3142;BME280;1581;51.568;6.998;2024-01-15T03:46:06;99462.22;;;3.46;100.00
3142;BME280;1581;51.568;6.998;2024-01-15T03:48:34;99464.41;;;3.43;100.00
3142;BME280;1581;51.568;6.998;2024-01-15T03:51:03;99462.22;;;3.46;100.00
3142;BME280;1581;51.568;6.998;2024-01-15T03:53:31;99457.84;;;3.39;100.00
3142;BME280;1581;51.568;6.998;2024-01-15T03:55:58;99460.38;;;3.55;100.00
3142;BME280;1581;51.568;6.998;2024-01-15T03:58:26;99455.81;;;3.49;100.00
3142;BME280;1581;51.568;6.998;2024-01-15T04:04:10;99447.78;;;3.42;100.00
3142;BME280;1581;51.568;6.998;2024-01-15T04:06:39;99448.78;;;3.41;100.00
3142;BME280;1581;51.568;6.998;2024-01-15T04:09:07;99440.38;;;3.46;100.00
3142;BME280;1581;51.568;6.998;2024-01-15T04:11:34;99439.97;;;3.57;100.00
3142;BME280;1581;51.568;6.998;2024-01-15T04:14:02;99425.94;;;3.56;100.00
3142;BME280;1581;51.568;6.998;2024-01-15T04:16:29;99428.66;;;3.48;100.00
3142;BME280;1581;51.568;6.998;2024-01-15T04:18:57;99426.22;;;3.47;100.00
3142;BME280;1581;51.568;6.998;2024-01-15T04:21:24;99422.22;;;3.51;100.00
3142;BME280;1581;51.568;6.998;2024-01-15T04:23:53;99421.50;;;3.35;100.00
3142;BME280;1581;51.568;6.998;2024-01-15T04:26:20;99416.94;;;3.51;100.00
3142;BME280;1581;51.568;6.998;2024-01-15T04:28:48;99429.53;;;3.41;100.00
3142;BME280;1581;51.568;6.998;2024-01-15T04:31:22;99406.28;;;3.44;100.00
3142;BME280;1581;51.568;6.998;2024-01-15T04:33:50;99406.41;;;3.51;100.00
3142;BME280;1581;51.568;6.998;2024-01-15T04:36:17;99402.66;;;3.45;100.00
3142;BME280;1581;51.568;6.998;2024-01-15T04:38:45;99408.00;;;3.38;100.00
3142;BME280;1581;51.568;6.998;2024-01-15T04:41:15;99411.75;;;3.43;100.00
3142;BME280;1581;51.568;6.998;2024-01-15T04:43:43;99399.22;;;3.45;100.00
3142;BME280;1581;51.568;6.998;2024-01-15T04:46:10;99407.94;;;3.45;100.00
3142;BME280;1581;51.568;6.998;2024-01-15T04:48:37;99406.59;;;3.49;100.00
3142;BME280;1581;51.568;6.998;2024-01-15T04:51:08;99410.94;;;3.42;100.00
3142;BME280;1581;51.568;6.998;2024-01-15T04:53:36;99403.97;;;3.49;100.00
3142;BME280;1581;51.568;6.998;2024-01-15T04:56:04;99403.25;;;3.55;100.00
3142;BME280;1581;51.568;6.998;2024-01-15T04:58:33;99397.94;;;3.41;100.00
3142;BME280;1581;51.568;6.998;2024-01-15T05:01:00;99399.50;;;3.50;100.00
3142;BME280;1581;51.568;6.998;2024-01-15T05:03:28;99398.03;;;3.47;100.00
3142;BME280;1581;51.568;6.998;2024-01-15T05:05:55;99396.09;;;3.64;100.00
3142;BME280;1581;51.568;6.998;2024-01-15T05:08:23;99391.31;;;3.45;100.00
3142;BME280;1581;51.568;6.998;2024-01-15T05:10:50;99382.91;;;3.49;100.00
3142;BME280;1581;51.568;6.998;2024-01-15T05:13:18;99386.53;;;3.48;100.00
3142;BME280;1581;51.568;6.998;2024-01-15T05:15:46;99381.06;;;3.50;100.00
3142;BME280;1581;51.568;6.998;2024-01-15T05:18:14;99370.91;;;3.47;100.00
3142;BME280;1581;51.568;6.998;2024-01-15T05:20:43;99377.44;;;3.51;100.00
3142;BME280;1581;51.568;6.998;2024-01-15T05:23:10;99382.91;;;3.49;100.00
3142;BME280;1581;51.568;6.998;2024-01-15T05:25:38;99384.03;;;3.33;100.00
3142;BME280;1581;51.568;6.998;2024-01-15T05:28:06;99379.09;;;3.30;100.00
3142;BME280;1581;51.568;6.998;2024-01-15T05:30:34;99376.53;;;3.44;100.00
3142;BME280;1581;51.568;6.998;2024-01-15T05:33:03;99377.84;;;3.40;100.00
3142;BME280;1581;51.568;6.998;2024-01-15T05:35:30;99377.94;;;3.32;100.00
3142;BME280;1581;51.568;6.998;2024-01-15T05:37:58;99373.25;;;3.42;100.00
3142;BME280;1581;51.568;6.998;2024-01-15T05:40:25;99374.41;;;3.39;100.00
3142;BME280;1581;51.568;6.998;2024-01-15T05:42:53;99370.59;;;3.42;100.00
3142;BME280;1581;51.568;6.998;2024-01-15T05:45:20;99376.53;;;3.44;100.00
3142;BME280;1581;51.568;6.998;2024-01-15T05:47:48;99376.34;;;3.45;100.00
3142;BME280;1581;51.568;6.998;2024-01-15T05:50:17;99370.72;;;3.48;100.00
3142;BME280;1581;51.568;6.998;2024-01-15T05:52:44;99371.84;;;3.54;100.00
3142;BME280;1581;51.568;6.998;2024-01-15T05:55:11;99376.19;;;3.47;100.00
3142;BME280;1581;51.568;6.998;2024-01-15T05:57:39;99376.28;;;3.53;100.00
3142;BME280;1581;51.568;6.998;2024-01-15T06:00:07;99376.91;;;3.55;100.00
3142;BME280;1581;51.568;6.998;2024-01-15T06:02:37;99374.19;;;3.49;100.00
3142;BME280;1581;51.568;6.998;2024-01-15T06:05:06;99374.69;;;3.44;100.00
3142;BME280;1581;51.568;6.998;2024-01-15T06:07:35;99364.16;;;3.44;100.00
3142;BME280;1581;51.568;6.998;2024-01-15T06:10:03;99363.16;;;3.45;100.00
3142;BME280;1581;51.568;6.998;2024-01-15T06:12:31;99363.75;;;3.55;100.00
3142;BME280;1581;51.568;6.998;2024-01-15T06:14:59;99362.56;;;3.43;100.00
3142;BME280;1581;51.568;6.998;2024-01-15T06:17:27;99360.44;;;3.39;100.00
3142;BME280;1581;51.568;6.998;2024-01-15T06:19:54;99360.38;;;3.47;100.00
3142;BME280;1581;51.568;6.998;2024-01-15T06:22:22;99363.13;;;3.53;100.00
3142;BME280;1581;51.568;6.998;2024-01-15T06:24:50;99358.78;;;3.60;100.00
3142;BME280;1581;51.568;6.998;2024-01-15T06:27:18;99355.16;;;3.61;100.00
3142;BME280;1581;51.568;6.998;2024-01-15T06:29:46;99344.59;;;3.47;100.00
3142;BME280;1581;51.568;6.998;2024-01-15T06:32:14;99346.25;;;3.40;100.00
3142;BME280;1581;51.568;6.998;2024-01-15T06:34:41;99347.38;;;3.45;100.00
3142;BME280;1581;51.568;6.998;2024-01-15T06:37:09;99339.81;;;3.65;100.00
3142;BME280;1581;51.568;6.998;2024-01-15T06:39:36;99349.44;;;3.58;100.00
3142;BME280;1581;51.568;6.998;2024-01-15T06:42:06;99347.88;;;3.49;100.00
3142;BME280;1581;51.568;6.998;2024-01-15T06:44:33;99350.66;;;3.47;100.00
3142;BME280;1581;51.568;6.998;2024-01-15T06:47:01;99360.13;;;3.56;100.00
3142;BME280;1581;51.568;6.998;2024-01-15T06:49:28;99353.69;;;3.59;100.00
3142;BME280;1581;51.568;6.998;2024-01-15T06:51:56;99352.59;;;3.53;100.00
3142;BME280;1581;51.568;6.998;2024-01-15T06:54:24;99347.69;;;3.50;100.00
3142;BME280;1581;51.568;6.998;2024-01-15T06:56:52;99353.50;;;3.60;100.00
3142;BME280;1581;51.568;6.998;2024-01-15T06:59:21;99351.41;;;3.56;100.00
3142;BME280;1581;51.568;6.998;2024-01-15T07:01:48;99365.47;;;3.48;100.00
3142;BME280;1581;51.568;6.998;2024-01-15T07:04:16;99371.72;;;3.47;100.00
3142;BME280;1581;51.568;6.998;2024-01-15T07:06:43;99360.78;;;3.58;100.00
3142;BME280;1581;51.568;6.998;2024-01-15T07:09:11;99361.06;;;3.63;100.00
3142;BME280;1581;51.568;6.998;2024-01-15T07:11:43;99360.13;;;3.56;100.00
3142;BME280;1581;51.568;6.998;2024-01-15T07:14:11;99355.50;;;3.58;100.00
3142;BME280;1581;51.568;6.998;2024-01-15T07:16:40;99354.16;;;3.40;100.00
3142;BME280;1581;51.568;6.998;2024-01-15T07:19:07;99362.75;;;3.56;100.00
3142;BME280;1581;51.568;6.998;2024-01-15T07:21:34;99351.38;;;3.41;100.00
3142;BME280;1581;51.568;6.998;2024-01-15T07:24:02;99354.59;;;3.51;100.00
3142;BME280;1581;51.568;6.998;2024-01-15T07:26:30;99357.91;;;3.45;100.00
3142;BME280;1581;51.568;6.998;2024-01-15T07:28:58;99345.72;;;3.44;100.00
3142;BME280;1581;51.568;6.998;2024-01-15T07:31:26;99362.56;;;3.43;100.00
3142;BME280;1581;51.568;6.998;2024-01-15T07:33:55;99354.47;;;3.45;100.00
3142;BME280;1581;51.568;6.998;2024-01-15T07:36:22;99354.41;;;3.53;100.00
3142;BME280;1581;51.568;6.998;2024-01-15T07:38:50;99366.56;;;3.54;100.00
3142;BME280;1581;51.568;6.998;2024-01-15T07:41:17;99353.94;;;3.49;100.00
3142;BME280;1581;51.568;6.998;2024-01-15T07:43:45;99364.47;;;3.49;100.00
3142;BME280;1581;51.568;6.998;2024-01-15T07:46:12;99353.06;;;3.35;100.00
3142;BME280;1581;51.568;6.998;2024-01-15T07:48:39;99357.28;;;3.43;100.00
3142;BME280;1581;51.568;6.998;2024-01-15T07:51:08;99351.53;;;3.40;100.00
3142;BME280;1581;51.568;6.998;2024-01-15T07:53:35;99356.44;;;3.43;100.00
3142;BME280;1581;51.568;6.998;2024-01-15T07:56:03;99358.91;;;3.44;100.00
3142;BME280;1581;51.568;6.998;2024-01-15T07:58:31;99355.91;;;3.47;100.00
3142;BME280;1581;51.568;6.998;2024-01-15T08:00:58;99362.56;;;3.43;100.00
3142;BME280;1581;51.568;6.998;2024-01-15T08:03:25;99358.63;;;3.39;100.00
3142;BME280;1581;51.568;6.998;2024-01-15T08:05:53;99357.75;;;3.47;100.00
3142;BME280;1581;51.568;6.998;2024-01-15T08:08:24;99355.91;;;3.47;100.00
3142;BME280;1581;51.568;6.998;2024-01-15T08:10:52;99357.16;;;3.37;100.00
3142;BME280;1581;51.568;6.998;2024-01-15T08:13:20;99352.91;;;3.36;100.00
3142;BME280;1581;51.568;6.998;2024-01-15T08:15:47;99353.63;;;3.44;100.00
3142;BME280;1581;51.568;6.998;2024-01-15T08:18:16;99364.69;;;3.62;100.00
3142;BME280;1581;51.568;6.998;2024-01-15T08:20:43;99362.56;;;3.43;100.00
3142;BME280;1581;51.568;6.998;2024-01-15T08:23:11;99362.91;;;3.40;100.00
3142;BME280;1581;51.568;6.998;2024-01-15T08:25:40;99360.94;;;3.35;100.00
3142;BME280;1581;51.568;6.998;2024-01-15T08:28:07;99357.91;;;3.45;100.00
3142;BME280;1581;51.568;6.998;2024-01-15T08:30:35;99362.25;;;3.38;100.00
3142;BME280;1581;51.568;6.998;2024-01-15T08:33:03;99358.97;;;3.37;100.00
3142;BME280;1581;51.568;6.998;2024-01-15T08:35:30;99354.53;;;3.37;100.00
3142;BME280;1581;51.568;6.998;2024-01-15T08:37:58;99349.09;;;3.38;100.00
3142;BME280;1581;51.568;6.998;2024-01-15T08:40:25;99351.53;;;3.40;100.00
3142;BME280;1581;51.568;6.998;2024-01-15T08:42:54;99346.94;;;3.56;100.00
3142;BME280;1581;51.568;6.998;2024-01-15T08:45:22;99355.50;;;3.58;100.00
3142;BME280;1581;51.568;6.998;2024-01-15T08:47:49;99356.91;;;3.46;100.00
3142;BME280;1581;51.568;6.998;2024-01-15T08:50:16;99357.09;;;3.45;100.00
3142;BME280;1581;51.568;6.998;2024-01-15T08:52:44;99362.66;;;3.28;100.00
3142;BME280;1581;51.568;6.998;2024-01-15T08:55:12;99358.22;;;3.50;100.00
3142;BME280;1581;51.568;6.998;2024-01-15T08:57:40;99363.69;;;3.41;100.00
3142;BME280;1581;51.568;6.998;2024-01-15T09:00:10;99366.19;;;3.42;100.00
3142;BME280;1581;51.568;6.998;2024-01-15T09:02:38;99369.16;;;3.39;100.00
3142;BME280;1581;51.568;6.998;2024-01-15T09:05:06;99363.81;;;3.47;100.00
3142;BME280;1581;51.568;6.998;2024-01-15T09:07:34;99364.66;;;3.48;100.00
3142;BME280;1581;51.568;6.998;2024-01-15T09:10:01;99364.53;;;3.41;100.00
3142;BME280;1581;51.568;6.998;2024-01-15T09:12:29;99375.75;;;3.36;100.00
3142;BME280;1581;51.568;6.998;2024-01-15T09:14:56;99386.00;;;3.31;100.00
3142;BME280;1581;51.568;6.998;2024-01-15T09:17:25;99383.84;;;3.34;100.00
3142;BME280;1581;51.568;6.998;2024-01-15T09:19:54;99385.94;;;3.16;100.00
3142;BME280;1581;51.568;6.998;2024-01-15T09:22:21;99382.78;;;3.21;100.00
3142;BME280;1581;51.568;6.998;2024-01-15T09:24:48;99385.47;;;3.13;100.00
3142;BME280;1581;51.568;6.998;2024-01-15T09:27:16;99385.75;;;3.18;100.00
3142;BME280;1581;51.568;6.998;2024-01-15T09:29:43;99385.75;;;3.18;100.00
3142;BME280;1581;51.568;6.998;2024-01-15T09:32:12;99383.31;;;3.16;100.00
3142;BME280;1581;51.568;6.998;2024-01-15T09:34:41;99387.13;;;3.14;100.00
3142;BME280;1581;51.568;6.998;2024-01-15T09:37:08;99384.56;;;3.28;100.00
3142;BME280;1581;51.568;6.998;2024-01-15T09:39:36;99373.03;;;3.29;100.00
3142;BME280;1581;51.568;6.998;2024-01-15T09:42:04;99387.13;;;3.14;100.00
3142;BME280;1581;51.568;6.998;2024-01-15T09:44:32;99381.28;;;3.26;100.00
3142;BME280;1581;51.568;6.998;2024-01-15T09:47:00;99380.16;;;3.21;100.00
3142;BME280;1581;51.568;6.998;2024-01-15T09:49:28;99380.03;;;3.14;100.00
3142;BME280;1581;51.568;6.998;2024-01-15T09:51:57;99372.94;;;3.15;100.00
3142;BME280;1581;51.568;6.998;2024-01-15T09:54:25;99383.97;;;3.18;100.00
3142;BME280;1581;51.568;6.998;2024-01-15T09:56:54;99379.16;;;3.22;100.00
3142;BME280;1581;51.568;6.998;2024-01-15T09:59:23;99382.25;;;3.25;100.00
3142;BME280;1581;51.568;6.998;2024-01-15T10:01:51;99382.50;;;3.38;100.00
3142;BME280;1581;51.568;6.998;2024-01-15T10:04:20;99377.13;;;3.32;100.00
3142;BME280;1581;51.568;6.998;2024-01-15T10:06:48;99373.53;;;3.25;100.00
3142;BME280;1581;51.568;6.998;2024-01-15T10:09:19;99388.75;;;3.37;100.00
3142;BME280;1581;51.568;6.998;2024-01-15T10:11:46;99379.63;;;3.47;100.00
3142;BME280;1581;51.568;6.998;2024-01-15T10:14:14;99374.38;;;3.25;100.00
3142;BME280;1581;51.568;6.998;2024-01-15T10:16:41;99372.91;;;3.23;100.00
3142;BME280;1581;51.568;6.998;2024-01-15T10:19:09;99372.97;;;3.37;100.00
3142;BME280;1581;51.568;6.998;2024-01-15T10:21:44;99377.16;;;3.46;100.00
3142;BME280;1581;51.568;6.998;2024-01-15T10:24:12;99380.22;;;3.35;100.00
3142;BME280;1581;51.568;6.998;2024-01-15T10:26:41;99372.84;;;3.31;100.00
3142;BME280;1581;51.568;6.998;2024-01-15T10:29:10;99377.66;;;3.27;100.00
3142;BME280;1581;51.568;6.998;2024-01-15T10:31:38;99385.69;;;3.26;100.00
3142;BME280;1581;51.568;6.998;2024-01-15T10:34:12;99376.28;;;3.31;100.00
3142;BME280;1581;51.568;6.998;2024-01-15T10:36:42;99370.88;;;3.33;100.00
3142;BME280;1581;51.568;6.998;2024-01-15T10:39:14;99374.06;;;3.42;100.00
3142;BME280;1581;51.568;6.998;2024-01-15T10:41:46;99379.34;;;3.42;100.00
3142;BME280;1581;51.568;6.998;2024-01-15T10:44:13;99371.78;;;3.39;100.00
3142;BME280;1581;51.568;6.998;2024-01-15T10:46:41;99384.88;;;3.47;100.00
3142;BME280;1581;51.568;6.998;2024-01-15T10:49:09;99381.53;;;3.31;100.00
3142;BME280;1581;51.568;6.998;2024-01-15T10:51:38;99393.84;;;3.38;100.00
3142;BME280;1581;51.568;6.998;2024-01-15T10:54:05;99383.84;;;3.34;100.00
3142;BME280;1581;51.568;6.998;2024-01-15T10:56:37;99379.38;;;3.35;100.00
3142;BME280;1581;51.568;6.998;2024-01-15T10:59:07;99381.59;;;3.45;100.00
3142;BME280;1581;51.568;6.998;2024-01-15T11:01:36;99374.34;;;3.47;100.00
3142;BME280;1581;51.568;6.998;2024-01-15T11:04:04;99378.63;;;3.48;100.00
3142;BME280;1581;51.568;6.998;2024-01-15T11:06:42;99378.66;;;3.63;100.00
3142;BME280;1581;51.568;6.998;2024-01-15T11:09:13;99382.06;;;3.71;100.00
3142;BME280;1581;51.568;6.998;2024-01-15T11:11:45;99390.50;;;3.67;100.00
3142;BME280;1581;51.568;6.998;2024-01-15T11:14:38;99391.66;;;3.64;100.00
3142;BME280;1581;51.568;6.998;2024-01-15T11:17:07;99378.41;;;3.58;100.00
3142;BME280;1581;51.568;6.998;2024-01-15T11:19:37;99363.28;;;3.52;100.00
3142;BME280;1581;51.568;6.998;2024-01-15T11:22:08;99372.72;;;3.46;100.00
3142;BME280;1581;51.568;6.998;2024-01-15T11:24:38;99376.91;;;3.55;100.00
3142;BME280;1581;51.568;6.998;2024-01-15T11:27:07;99378.84;;;3.61;100.00
3142;BME280;1581;51.568;6.998;2024-01-15T11:29:37;99377.88;;;3.62;100.00
3142;BME280;1581;51.568;6.998;2024-01-15T11:32:06;99372.09;;;3.81;100.00
3142;BME280;1581;51.568;6.998;2024-01-15T11:34:58;99378.03;;;3.98;100.00
3142;BME280;1581;51.568;6.998;2024-01-15T11:37:29;99382.75;;;4.02;100.00
3142;BME280;1581;51.568;6.998;2024-01-15T11:40:01;99384.09;;;3.98;100.00
3142;BME280;1581;51.568;6.998;2024-01-15T11:42:30;99375.50;;;4.19;100.00
3142;BME280;1581;51.568;6.998;2024-01-15T11:45:00;99377.22;;;4.12;100.00
3142;BME280;1581;51.568;6.998;2024-01-15T11:48:18;99374.84;;;3.88;100.00
3142;BME280;1581;51.568;6.998;2024-01-15T11:50:50;99384.00;;;3.92;100.00
3142;BME280;1581;51.568;6.998;2024-01-15T11:53:26;99384.75;;;4.00;100.00
3142;BME280;1581;51.568;6.998;2024-01-15T11:55:58;99381.22;;;4.08;100.00
3142;BME280;1581;51.568;6.998;2024-01-15T11:58:26;99386.91;;;3.82;100.00
3142;BME280;1581;51.568;6.998;2024-01-15T12:00:55;99385.53;;;3.86;100.00
3142;BME280;1581;51.568;6.998;2024-01-15T12:03:23;99382.88;;;3.72;100.00
3142;BME280;1581;51.568;6.998;2024-01-15T12:05:52;99373.88;;;3.81;100.00
3142;BME280;1581;51.568;6.998;2024-01-15T12:08:23;99375.72;;;3.80;100.00
3142;BME280;1581;51.568;6.998;2024-01-15T12:10:51;99369.16;;;3.76;100.00
3142;BME280;1581;51.568;6.998;2024-01-15T12:13:20;99365.97;;;3.81;100.00
3142;BME280;1581;51.568;6.998;2024-01-15T12:15:48;99365.63;;;3.84;100.00
3142;BME280;1581;51.568;6.998;2024-01-15T12:18:19;99367.28;;;3.85;100.00
3142;BME280;1581;51.568;6.998;2024-01-15T12:20:47;99381.69;;;3.74;100.00
3142;BME280;1581;51.568;6.998;2024-01-15T12:23:15;99372.31;;;3.94;100.00
3142;BME280;1581;51.568;6.998;2024-01-15T12:25:42;99364.66;;;3.99;100.00
3142;BME280;1581;51.568;6.998;2024-01-15T12:28:10;99378.91;;;3.90;100.00
3142;BME280;1581;51.568;6.998;2024-01-15T12:30:38;99369.19;;;3.91;100.00
3142;BME280;1581;51.568;6.998;2024-01-15T12:33:07;99373.28;;;3.79;100.00
3142;BME280;1581;51.568;6.998;2024-01-15T12:35:37;99365.81;;;3.82;100.00
3142;BME280;1581;51.568;6.998;2024-01-15T12:38:04;99383.53;;;3.88;100.00
3142;BME280;1581;51.568;6.998;2024-01-15T12:40:33;99377.22;;;4.12;100.00
3142;BME280;1581;51.568;6.998;2024-01-15T12:43:01;99382.03;;;4.08;100.00
3142;BME280;1581;51.568;6.998;2024-01-15T12:45:29;99373.41;;;4.14;100.00
3142;BME280;1581;51.568;6.998;2024-01-15T12:47:57;99370.50;;;4.23;100.00
3142;BME280;1581;51.568;6.998;2024-01-15T12:50:26;99380.41;;;4.22;100.00
3142;BME280;1581;51.568;6.998;2024-01-15T12:52:55;99390.03;;;4.15;100.00
3142;BME280;1581;51.568;6.998;2024-01-15T12:55:22;99393.41;;;4.23;100.00
3142;BME280;1581;51.568;6.998;2024-01-15T12:57:50;99390.69;;;4.31;100.00
3142;BME280;1581;51.568;6.998;2024-01-15T13:00:20;99390.78;;;4.37;100.00
3142;BME280;1581;51.568;6.998;2024-01-15T13:02:47;99395.22;;;4.37;100.00
3142;BME280;1581;51.568;6.998;2024-01-15T13:05:17;99385.41;;;4.31;100.00
3142;BME280;1581;51.568;6.998;2024-01-15T13:07:44;99397.16;;;4.43;100.00
3142;BME280;1581;51.568;6.998;2024-01-15T13:10:13;99396.59;;;4.33;100.00
3142;BME280;1581;51.568;6.998;2024-01-15T13:12:41;99403.78;;;4.39;100.00
3142;BME280;1581;51.568;6.998;2024-01-15T13:15:09;99405.50;;;4.46;100.00
3142;BME280;1581;51.568;6.998;2024-01-15T13:17:38;99407.13;;;4.62;100.00
3142;BME280;1581;51.568;6.998;2024-01-15T13:20:07;99402.97;;;5.03;100.00
3142;BME280;1581;51.568;6.998;2024-01-15T13:22:37;99412.84;;;4.80;100.00
3142;BME280;1581;51.568;6.998;2024-01-15T13:25:06;99408.75;;;4.77;100.00
3142;BME280;1581;51.568;6.998;2024-01-15T13:27:35;99407.84;;;4.70;100.00
3142;BME280;1581;51.568;6.998;2024-01-15T13:30:04;99405.44;;;5.04;100.00
3142;BME280;1581;51.568;6.998;2024-01-15T13:32:33;99415.63;;;5.07;100.00